sensor_id;sensor_type;location;lat;lon;timestamp;pressure;altitude;pressure_sealevel;temperature;humidity
7586;BME280;12459;42.646;23.292;2022-11-20T00:01:31;92870.06;;;19.83;59.26
7586;BME280;12459;42.646;23.292;2022-11-20T00:16:33;92857.44;;;19.59;60.75
7586;BME280;12459;42.646;23.292;2022-11-20T00:31:35;92843.63;;;20.15;58.18
7586;BME280;12459;42.646;23.292;2022-11-20T00:46:36;92839.34;;;20.02;58.47
7586;BME280;12459;42.646;23.292;2022-11-20T01:01:38;92855.75;;;20.14;57.21
7586;BME280;12459;42.646;23.292;2022-11-20T01:16:41;92863.88;;;19.82;58.44
7586;BME280;12459;42.646;23.292;2022-11-20T01:31:43;92800.16;;;19.89;57.79
7586;BME280;12459;42.646;23.292;2022-11-20T01:47:03;92794.66;;;19.83;57.79
7586;BME280;12459;42.646;23.292;2022-11-20T02:02:06;92802.00;;;20.03;56.50
7586;BME280;12459;42.646;23.292;2022-11-20T02:17:07;92837.28;;;19.71;56.94
7586;BME280;12459;42.646;23.292;2022-11-20T02:47:20;92853.44;;;19.14;60.16
7586;BME280;12459;42.646;23.292;2022-11-20T03:02:21;92878.75;;;19.26;62.16
7586;BME280;12459;42.646;23.292;2022-11-20T03:17:23;92853.22;;;18.97;63.84
7586;BME280;12459;42.646;23.292;2022-11-20T03:32:24;92882.28;;;18.91;63.93
7586;BME280;12459;42.646;23.292;2022-11-20T03:47:26;92884.44;;;18.87;63.69
7586;BME280;12459;42.646;23.292;2022-11-20T04:02:27;92905.72;;;18.74;63.58
7586;BME280;12459;42.646;23.292;2022-11-20T04:17:29;92902.25;;;19.08;62.49
7586;BME280;12459;42.646;23.292;2022-11-20T04:32:30;92888.16;;;18.25;67.28
7586;BME280;12459;42.646;23.292;2022-11-20T04:47:32;92904.16;;;18.23;67.29
7586;BME280;12459;42.646;23.292;2022-11-20T05:02:33;92891.38;;;18.59;64.92
7586;BME280;12459;42.646;23.292;2022-11-20T05:17:35;92874.00;;;19.00;65.39
7586;BME280;12459;42.646;23.292;2022-11-20T05:32:36;92853.28;;;18.18;68.28
7586;BME280;12459;42.646;23.292;2022-11-20T05:47:37;92850.44;;;18.27;67.17
7586;BME280;12459;42.646;23.292;2022-11-20T06:02:39;92887.78;;;18.32;66.34
7586;BME280;12459;42.646;23.292;2022-11-20T06:17:40;92890.16;;;18.60;64.07
7586;BME280;12459;42.646;23.292;2022-11-20T06:32:42;92889.25;;;18.77;63.73
7586;BME280;12459;42.646;23.292;2022-11-20T06:47:43;92908.38;;;20.36;54.82
7586;BME280;12459;42.646;23.292;2022-11-20T07:02:45;92927.75;;;21.01;54.30
7586;BME280;12459;42.646;23.292;2022-11-20T07:17:46;92935.03;;;19.60;60.00
7586;BME280;12459;42.646;23.292;2022-11-20T07:32:51;92931.47;;;19.34;59.75
7586;BME280;12459;42.646;23.292;2022-11-20T07:47:53;92916.66;;;19.14;60.50
7586;BME280;12459;42.646;23.292;2022-11-20T08:02:54;92949.25;;;19.14;65.21
7586;BME280;12459;42.646;23.292;2022-11-20T08:18:03;92931.19;;;19.32;62.61
7586;BME280;12459;42.646;23.292;2022-11-20T08:33:25;92973.78;;;19.20;62.64
7586;BME280;12459;42.646;23.292;2022-11-20T08:48:26;93017.53;;;18.48;79.69
7586;BME280;12459;42.646;23.292;2022-11-20T09:03:28;93002.16;;;18.16;100.00
7586;BME280;12459;42.646;23.292;2022-11-20T09:18:33;93030.69;;;16.98;100.00
7586;BME280;12459;42.646;23.292;2022-11-20T09:33:37;93007.84;;;16.20;100.00
7586;BME280;12459;42.646;23.292;2022-11-20T09:48:43;92962.81;;;17.34;100.00
7586;BME280;12459;42.646;23.292;2022-11-20T10:04:03;92960.72;;;18.60;89.17
7586;BME280;12459;42.646;23.292;2022-11-20T10:19:10;92943.22;;;18.61;85.12
7586;BME280;12459;42.646;23.292;2022-11-20T10:49:37;92972.78;;;17.52;100.00
7586;BME280;12459;42.646;23.292;2022-11-20T11:04:54;93019.94;;;17.12;100.00
7586;BME280;12459;42.646;23.292;2022-11-20T11:35:18;92984.59;;;13.25;100.00
7586;BME280;12459;42.646;23.292;2022-11-20T11:50:21;92985.16;;;14.95;100.00
7586;BME280;12459;42.646;23.292;2022-11-20T12:05:24;92967.13;;;14.83;100.00
7586;BME280;12459;42.646;23.292;2022-11-20T12:20:29;92977.13;;;14.42;100.00
7586;BME280;12459;42.646;23.292;2022-11-20T13:06:20;92927.47;;;16.63;88.19
7586;BME280;12459;42.646;23.292;2022-11-20T13:21:23;92972.22;;;14.81;100.00
7586;BME280;12459;42.646;23.292;2022-11-20T13:36:35;92966.50;;;14.48;100.00
7586;BME280;12459;42.646;23.292;2022-11-20T14:06:42;92977.72;;;15.26;100.00
7586;BME280;12459;42.646;23.292;2022-11-20T14:21:48;92971.19;;;14.56;100.00
7586;BME280;12459;42.646;23.292;2022-11-20T14:36:52;92977.22;;;14.60;100.00
7586;BME280;12459;42.646;23.292;2022-11-20T14:52:01;92979.91;;;14.38;100.00
7586;BME280;12459;42.646;23.292;2022-11-20T15:07:03;93003.06;;;14.49;100.00
7586;BME280;12459;42.646;23.292;2022-11-20T15:22:07;93025.06;;;14.03;100.00
7586;BME280;12459;42.646;23.292;2022-11-20T15:37:13;93051.19;;;13.59;100.00
7586;BME280;12459;42.646;23.292;2022-11-20T15:52:15;93105.34;;;13.36;100.00
7586;BME280;12459;42.646;23.292;2022-11-20T16:07:17;93092.53;;;13.02;100.00
7586;BME280;12459;42.646;23.292;2022-11-20T16:22:18;93072.72;;;13.47;100.00
7586;BME280;12459;42.646;23.292;2022-11-20T16:37:20;93054.97;;;13.11;100.00
7586;BME280;12459;42.646;23.292;2022-11-20T16:52:21;93044.53;;;13.13;100.00
7586;BME280;12459;42.646;23.292;2022-11-20T17:07:23;93045.91;;;13.43;100.00
7586;BME280;12459;42.646;23.292;2022-11-20T17:22:24;93042.06;;;12.81;100.00
7586;BME280;12459;42.646;23.292;2022-11-20T17:37:26;93019.56;;;12.49;100.00
7586;BME280;12459;42.646;23.292;2022-11-20T17:52:27;92971.22;;;12.49;100.00
7586;BME280;12459;42.646;23.292;2022-11-20T18:07:29;92924.72;;;12.10;100.00
7586;BME280;12459;42.646;23.292;2022-11-20T18:22:30;92901.75;;;12.47;100.00
7586;BME280;12459;42.646;23.292;2022-11-20T18:37:32;92892.19;;;12.21;100.00
7586;BME280;12459;42.646;23.292;2022-11-20T18:52:37;92871.66;;;12.40;100.00
7586;BME280;12459;42.646;23.292;2022-11-20T19:07:39;92867.91;;;12.12;100.00
7586;BME280;12459;42.646;23.292;2022-11-20T19:22:41;92847.66;;;12.45;100.00
7586;BME280;12459;42.646;23.292;2022-11-20T19:37:42;92865.09;;;13.01;100.00
7586;BME280;12459;42.646;23.292;2022-11-20T19:52:44;92813.22;;;12.19;100.00
7586;BME280;12459;42.646;23.292;2022-11-20T20:07:45;92771.84;;;12.29;100.00
7586;BME280;12459;42.646;23.292;2022-11-20T20:22:47;92766.72;;;12.09;100.00
7586;BME280;12459;42.646;23.292;2022-11-20T20:37:49;92757.13;;;12.21;100.00
7586;BME280;12459;42.646;23.292;2022-11-20T20:52:50;92794.22;;;12.13;100.00
7586;BME280;12459;42.646;23.292;2022-11-20T21:07:52;92751.59;;;11.90;100.00
7586;BME280;12459;42.646;23.292;2022-11-20T21:23:11;92703.69;;;11.88;100.00
7586;BME280;12459;42.646;23.292;2022-11-20T21:38:13;92690.56;;;12.03;100.00
7586;BME280;12459;42.646;23.292;2022-11-20T21:53:15;92599.00;;;11.88;100.00
7586;BME280;12459;42.646;23.292;2022-11-20T22:16:06;92547.72;;;12.39;100.00
7586;BME280;12459;42.646;23.292;2022-11-20T22:31:08;92513.25;;;11.72;100.00
7586;BME280;12459;42.646;23.292;2022-11-20T23:01:15;92430.53;;;12.32;100.00
7586;BME280;12459;42.646;23.292;2022-11-20T23:16:17;92408.31;;;12.72;100.00
7586;BME280;12459;42.646;23.292;2022-11-20T23:31:22;92353.56;;;11.98;100.00
7586;BME280;12459;42.646;23.292;2022-11-20T23:46:24;92336.16;;;11.28;100.00
